QFA6061 YSSY-YMML
Flight info
| Callsign | QFA6061 |
|---|---|
| Flight time | 1h 6m |
| Altitude | 38000 |
| Route | WOL H65 LEECE Q29 ML |
| Aircraft | A388/J-SADE2E3FGHIJ3J4J5M1RWXY/LB1D1 |
Departure
| Time | 2026-05-05 20:31 |
|---|---|
| Airport | Sydney Kingsford Smith International Airport (YSSY) |
Arrival
| Time | 2026-05-05 21:38 |
|---|---|
| Airport | Melbourne Airport (YMML) |
| Time | Latitude | Longitude | Altitude | Speed | Heading |
|---|---|---|---|---|---|
| 2026-05-05 19:51 | -33.93624 | 151.16921 | 35 ft | 0 kts | 178° |
| 2026-05-05 20:19 | -33.93607 | 151.16920 | 34 ft | 4 kts | 178° |
| 2026-05-05 20:20 | -33.93580 | 151.16919 | 34 ft | 4 kts | 178° |
| 2026-05-05 20:20 | -33.93555 | 151.16919 | 33 ft | 4 kts | 177° |
| 2026-05-05 20:20 | -33.93536 | 151.16913 | 35 ft | 4 kts | 143° |
| 2026-05-05 20:20 | -33.93529 | 151.16900 | 35 ft | 4 kts | 96° |
| 2026-05-05 20:21 | -33.93530 | 151.16870 | 32 ft | 4 kts | 79° |
| 2026-05-05 20:21 | -33.93534 | 151.16849 | 31 ft | 2 kts | 78° |
| 2026-05-05 20:23 | -33.93533 | 151.16853 | 31 ft | 2 kts | 78° |
| 2026-05-05 20:23 | -33.93526 | 151.16899 | 35 ft | 9 kts | 78° |
| 2026-05-05 20:23 | -33.93510 | 151.16992 | 35 ft | 12 kts | 79° |
| 2026-05-05 20:24 | -33.93502 | 151.17079 | 35 ft | 10 kts | 112° |
| 2026-05-05 20:24 | -33.93566 | 151.17121 | 34 ft | 13 kts | 168° |
| 2026-05-05 20:24 | -33.93671 | 151.17146 | 34 ft | 18 kts | 168° |
| 2026-05-05 20:24 | -33.93805 | 151.17182 | 34 ft | 21 kts | 165° |
| 2026-05-05 20:25 | -33.93942 | 151.17217 | 34 ft | 21 kts | 169° |
| 2026-05-05 20:25 | -33.94091 | 151.17256 | 34 ft | 23 kts | 167° |
| 2026-05-05 20:25 | -33.94259 | 151.17298 | 35 ft | 25 kts | 166° |
| 2026-05-05 20:25 | -33.94435 | 151.17344 | 35 ft | 26 kts | 169° |
| 2026-05-05 20:26 | -33.94587 | 151.17399 | 35 ft | 18 kts | 159° |
| 2026-05-05 20:26 | -33.94708 | 151.17424 | 35 ft | 19 kts | 179° |
| 2026-05-05 20:26 | -33.94845 | 151.17452 | 35 ft | 22 kts | 168° |
| 2026-05-05 20:26 | -33.95004 | 151.17493 | 35 ft | 25 kts | 167° |
| 2026-05-05 20:27 | -33.95178 | 151.17540 | 34 ft | 27 kts | 168° |
| 2026-05-05 20:27 | -33.95363 | 151.17588 | 34 ft | 28 kts | 168° |
| 2026-05-05 20:27 | -33.95556 | 151.17636 | 35 ft | 29 kts | 167° |
| 2026-05-05 20:27 | -33.95753 | 151.17687 | 35 ft | 29 kts | 168° |
| 2026-05-05 20:28 | -33.95950 | 151.17739 | 35 ft | 25 kts | 168° |
| 2026-05-05 20:28 | -33.96100 | 151.17778 | 35 ft | 23 kts | 167° |
| 2026-05-05 20:28 | -33.96251 | 151.17820 | 35 ft | 20 kts | 167° |
| 2026-05-05 20:28 | -33.96375 | 151.17853 | 35 ft | 16 kts | 167° |
| 2026-05-05 20:29 | -33.96435 | 151.17917 | 35 ft | 13 kts | 90° |
| 2026-05-05 20:29 | -33.96418 | 151.18023 | 35 ft | 8 kts | 75° |
| 2026-05-05 20:29 | -33.96401 | 151.18054 | 35 ft | 2 kts | 8° |
| 2026-05-05 20:29 | -33.96377 | 151.18051 | 35 ft | 6 kts | 351° |
| 2026-05-05 20:30 | -33.96350 | 151.18045 | 35 ft | 0 kts | 347° |
| 2026-05-05 20:30 | -33.96152 | 151.17991 | 32 ft | 73 kts | 348° |
| 2026-05-05 20:31 | -33.95426 | 151.17805 | 34 ft | 138 kts | 348° |
| 2026-05-05 20:31 | -33.94366 | 151.17532 | 198 ft | 165 kts | 347° |
| 2026-05-05 20:31 | -33.93245 | 151.17208 | 666 ft | 163 kts | 334° |
| 2026-05-05 20:31 | -33.92356 | 151.16373 | 1141 ft | 169 kts | 298° |
| 2026-05-05 20:32 | -33.91935 | 151.15058 | 1742 ft | 170 kts | 283° |
| 2026-05-05 20:32 | -33.91598 | 151.13681 | 2448 ft | 175 kts | 289° |
| 2026-05-05 20:32 | -33.91133 | 151.12322 | 3164 ft | 176 kts | 297° |
| 2026-05-05 20:32 | -33.90535 | 151.10979 | 3641 ft | 191 kts | 302° |
| 2026-05-05 20:33 | -33.89809 | 151.09557 | 3936 ft | 208 kts | 304° |
| 2026-05-05 20:33 | -33.88996 | 151.08045 | 4136 ft | 232 kts | 304° |
| 2026-05-05 20:33 | -33.88071 | 151.06343 | 4628 ft | 253 kts | 304° |
| 2026-05-05 20:33 | -33.87065 | 151.04488 | 5150 ft | 274 kts | 304° |
| 2026-05-05 20:34 | -33.86030 | 151.02565 | 6152 ft | 274 kts | 304° |
| 2026-05-05 20:34 | -33.84991 | 151.00621 | 6749 ft | 278 kts | 301° |
| 2026-05-05 20:34 | -33.84426 | 150.98398 | 7371 ft | 282 kts | 275° |
| 2026-05-05 20:34 | -33.84395 | 150.96841 | 8067 ft | 280 kts | 270° |
| 2026-05-05 20:35 | -33.84488 | 150.93697 | 9347 ft | 283 kts | 262° |
| 2026-05-05 20:35 | -33.85155 | 150.91481 | 10266 ft | 287 kts | 237° |
| 2026-05-05 20:35 | -33.86020 | 150.90240 | 10587 ft | 300 kts | 223° |
| 2026-05-05 20:35 | -33.88599 | 150.88686 | 10913 ft | 333 kts | 192° |
| 2026-05-05 20:36 | -33.90939 | 150.88245 | 11391 ft | 344 kts | 189° |
| 2026-05-05 20:36 | -33.93315 | 150.87821 | 12151 ft | 347 kts | 189° |
| 2026-05-05 20:36 | -33.95719 | 150.87422 | 12888 ft | 351 kts | 188° |
| 2026-05-05 20:36 | -33.98163 | 150.87086 | 13620 ft | 355 kts | 188° |
| 2026-05-05 20:37 | -33.99797 | 150.86873 | 14101 ft | 358 kts | 188° |
| 2026-05-05 20:37 | -34.02282 | 150.86548 | 14774 ft | 361 kts | 188° |
| 2026-05-05 20:37 | -34.04787 | 150.86212 | 15462 ft | 363 kts | 188° |
| 2026-05-05 20:37 | -34.07307 | 150.85867 | 16125 ft | 367 kts | 188° |
| 2026-05-05 20:38 | -34.10687 | 150.85399 | 16976 ft | 371 kts | 189° |
| 2026-05-05 20:38 | -34.13263 | 150.85041 | 17632 ft | 374 kts | 189° |
| 2026-05-05 20:38 | -34.15011 | 150.84798 | 18055 ft | 377 kts | 189° |
| 2026-05-05 20:38 | -34.17590 | 150.84438 | 18653 ft | 380 kts | 189° |
| 2026-05-05 20:39 | -34.20227 | 150.84071 | 19187 ft | 383 kts | 189° |
| 2026-05-05 20:39 | -34.22895 | 150.83700 | 19716 ft | 387 kts | 189° |
| 2026-05-05 20:39 | -34.25573 | 150.83327 | 20235 ft | 390 kts | 189° |
| 2026-05-05 20:39 | -34.28278 | 150.82950 | 20765 ft | 393 kts | 189° |
| 2026-05-05 20:40 | -34.31896 | 150.82445 | 21430 ft | 397 kts | 189° |
| 2026-05-05 20:40 | -34.34649 | 150.82061 | 21945 ft | 400 kts | 189° |
| 2026-05-05 20:40 | -34.36523 | 150.81799 | 22287 ft | 402 kts | 189° |
| 2026-05-05 20:40 | -34.39277 | 150.81414 | 22776 ft | 406 kts | 189° |
| 2026-05-05 20:41 | -34.42093 | 150.81020 | 23279 ft | 409 kts | 189° |
| 2026-05-05 20:41 | -34.44933 | 150.80623 | 23764 ft | 412 kts | 189° |
| 2026-05-05 20:41 | -34.47788 | 150.80223 | 24192 ft | 415 kts | 189° |
| 2026-05-05 20:41 | -34.51587 | 150.79668 | 24819 ft | 415 kts | 192° |
| 2026-05-05 20:42 | -34.53462 | 150.79083 | 25081 ft | 415 kts | 202° |
| 2026-05-05 20:42 | -34.56032 | 150.77501 | 25529 ft | 412 kts | 217° |
| 2026-05-05 20:42 | -34.58139 | 150.75233 | 25977 ft | 411 kts | 231° |
| 2026-05-05 20:42 | -34.59842 | 150.72442 | 26456 ft | 412 kts | 236° |
| 2026-05-05 20:43 | -34.61524 | 150.69607 | 26939 ft | 415 kts | 236° |
| 2026-05-05 20:43 | -34.63233 | 150.66765 | 27436 ft | 418 kts | 236° |
| 2026-05-05 20:43 | -34.64960 | 150.63902 | 27961 ft | 422 kts | 236° |
| 2026-05-05 20:43 | -34.66697 | 150.61022 | 28468 ft | 425 kts | 236° |
| 2026-05-05 20:44 | -34.68449 | 150.58110 | 28988 ft | 428 kts | 236° |
| 2026-05-05 20:44 | -34.70213 | 150.55175 | 29510 ft | 431 kts | 236° |
| 2026-05-05 20:44 | -34.71988 | 150.52218 | 30019 ft | 435 kts | 236° |
| 2026-05-05 20:44 | -34.73751 | 150.49277 | 30518 ft | 438 kts | 236° |
| 2026-05-05 20:45 | -34.77366 | 150.43241 | 31449 ft | 444 kts | 236° |
| 2026-05-05 20:45 | -34.79191 | 150.40191 | 31874 ft | 448 kts | 236° |
| 2026-05-05 20:45 | -34.81024 | 150.37124 | 32340 ft | 451 kts | 236° |
| 2026-05-05 20:46 | -34.82875 | 150.34024 | 32834 ft | 452 kts | 236° |
| 2026-05-05 20:46 | -34.84730 | 150.30916 | 33229 ft | 456 kts | 236° |
| 2026-05-05 20:46 | -34.86604 | 150.27770 | 33661 ft | 460 kts | 236° |
| 2026-05-05 20:46 | -34.88488 | 150.24607 | 34076 ft | 463 kts | 236° |
| 2026-05-05 20:47 | -34.90362 | 150.21457 | 34464 ft | 467 kts | 236° |
| 2026-05-05 20:47 | -34.92271 | 150.18246 | 34847 ft | 469 kts | 236° |
| 2026-05-05 20:47 | -34.94187 | 150.15020 | 35286 ft | 471 kts | 236° |
| 2026-05-05 20:47 | -34.96106 | 150.11786 | 35797 ft | 470 kts | 237° |
| 2026-05-05 20:48 | -34.98019 | 150.08561 | 36401 ft | 468 kts | 237° |
| 2026-05-05 20:48 | -34.99921 | 150.05351 | 36988 ft | 466 kts | 237° |
| 2026-05-05 20:48 | -35.01818 | 150.02146 | 37478 ft | 466 kts | 237° |
| 2026-05-05 20:48 | -35.03709 | 149.98947 | 37986 ft | 465 kts | 238° |
| 2026-05-05 20:49 | -35.05585 | 149.95769 | 38243 ft | 470 kts | 238° |
| 2026-05-05 20:49 | -35.07480 | 149.92556 | 38279 ft | 465 kts | 238° |
| 2026-05-05 20:49 | -35.11265 | 149.86131 | 38277 ft | 467 kts | 238° |
| 2026-05-05 20:50 | -35.15065 | 149.79671 | 38278 ft | 469 kts | 238° |
| 2026-05-05 20:50 | -35.18865 | 149.73201 | 38270 ft | 469 kts | 238° |
| 2026-05-05 20:51 | -35.22630 | 149.66776 | 38276 ft | 468 kts | 238° |
| 2026-05-05 20:51 | -35.26419 | 149.60299 | 38251 ft | 467 kts | 238° |
| 2026-05-05 20:52 | -35.30196 | 149.53832 | 38255 ft | 467 kts | 238° |
| 2026-05-05 20:52 | -35.33959 | 149.47375 | 38247 ft | 466 kts | 238° |
| 2026-05-05 20:53 | -35.37701 | 149.40942 | 38241 ft | 466 kts | 238° |
| 2026-05-05 20:53 | -35.41457 | 149.34475 | 38232 ft | 466 kts | 238° |
| 2026-05-05 20:54 | -35.45210 | 149.27999 | 38237 ft | 466 kts | 238° |
| 2026-05-05 20:54 | -35.48961 | 149.21515 | 38237 ft | 466 kts | 238° |
| 2026-05-05 20:55 | -35.52704 | 149.15034 | 38245 ft | 466 kts | 238° |
| 2026-05-05 20:55 | -35.56421 | 149.08584 | 38263 ft | 466 kts | 238° |
| 2026-05-05 20:56 | -35.60155 | 149.02093 | 38269 ft | 465 kts | 238° |
| 2026-05-05 20:56 | -35.63891 | 148.95589 | 38269 ft | 465 kts | 238° |
| 2026-05-05 20:57 | -35.67615 | 148.89092 | 38266 ft | 465 kts | 238° |
| 2026-05-05 20:57 | -35.71313 | 148.82627 | 38288 ft | 465 kts | 238° |
| 2026-05-05 20:58 | -35.75031 | 148.76115 | 38270 ft | 465 kts | 238° |
| 2026-05-05 20:58 | -35.78745 | 148.69599 | 38269 ft | 465 kts | 238° |
| 2026-05-05 20:59 | -35.82460 | 148.63070 | 38277 ft | 465 kts | 238° |
| 2026-05-05 20:59 | -35.86162 | 148.56550 | 38277 ft | 465 kts | 238° |
| 2026-05-05 21:00 | -35.89840 | 148.50058 | 38271 ft | 465 kts | 238° |
| 2026-05-05 21:00 | -35.93525 | 148.43513 | 38269 ft | 464 kts | 239° |
| 2026-05-05 21:01 | -35.97202 | 148.36970 | 38267 ft | 464 kts | 238° |
| 2026-05-05 21:01 | -36.00880 | 148.30420 | 38260 ft | 464 kts | 239° |
| 2026-05-05 21:02 | -36.04524 | 148.23915 | 38258 ft | 463 kts | 239° |
| 2026-05-05 21:02 | -36.08185 | 148.17370 | 38261 ft | 463 kts | 239° |
| 2026-05-05 21:03 | -36.11845 | 148.10812 | 38263 ft | 463 kts | 239° |
| 2026-05-05 21:03 | -36.15505 | 148.04265 | 38261 ft | 463 kts | 239° |
| 2026-05-05 21:04 | -36.19165 | 147.97717 | 38264 ft | 462 kts | 239° |
| 2026-05-05 21:04 | -36.22786 | 147.91222 | 38268 ft | 462 kts | 239° |
| 2026-05-05 21:05 | -36.26431 | 147.84670 | 38276 ft | 461 kts | 239° |
| 2026-05-05 21:05 | -36.30069 | 147.78118 | 38269 ft | 461 kts | 239° |
| 2026-05-05 21:06 | -36.33696 | 147.71575 | 38264 ft | 461 kts | 239° |
| 2026-05-05 21:06 | -36.37293 | 147.65057 | 38264 ft | 460 kts | 239° |
| 2026-05-05 21:07 | -36.40901 | 147.58503 | 38273 ft | 460 kts | 239° |
| 2026-05-05 21:07 | -36.44517 | 147.51923 | 38263 ft | 460 kts | 239° |
| 2026-05-05 21:08 | -36.48122 | 147.45350 | 38262 ft | 461 kts | 239° |
| 2026-05-05 21:08 | -36.51702 | 147.38813 | 38262 ft | 460 kts | 239° |
| 2026-05-05 21:09 | -36.55302 | 147.32228 | 38256 ft | 461 kts | 239° |
| 2026-05-05 21:09 | -36.58896 | 147.25639 | 38250 ft | 460 kts | 239° |
| 2026-05-05 21:10 | -36.62490 | 147.19040 | 38260 ft | 460 kts | 239° |
| 2026-05-05 21:10 | -36.66078 | 147.12435 | 38250 ft | 460 kts | 239° |
| 2026-05-05 21:11 | -36.69635 | 147.05878 | 38056 ft | 457 kts | 239° |
| 2026-05-05 21:11 | -36.71405 | 147.02612 | 37782 ft | 453 kts | 239° |
| 2026-05-05 21:11 | -36.73167 | 146.99355 | 37517 ft | 454 kts | 239° |
| 2026-05-05 21:12 | -36.74932 | 146.96085 | 37243 ft | 456 kts | 239° |
| 2026-05-05 21:12 | -36.76701 | 146.92808 | 36989 ft | 457 kts | 239° |
| 2026-05-05 21:12 | -36.78475 | 146.89520 | 36479 ft | 456 kts | 239° |
| 2026-05-05 21:12 | -36.80247 | 146.86230 | 35623 ft | 459 kts | 239° |
| 2026-05-05 21:13 | -36.82017 | 146.82940 | 34614 ft | 465 kts | 239° |
| 2026-05-05 21:13 | -36.83823 | 146.79583 | 33749 ft | 466 kts | 239° |
| 2026-05-05 21:13 | -36.85616 | 146.76250 | 33165 ft | 459 kts | 239° |
| 2026-05-05 21:13 | -36.87377 | 146.72974 | 32846 ft | 448 kts | 239° |
| 2026-05-05 21:14 | -36.89104 | 146.69758 | 32268 ft | 444 kts | 239° |
| 2026-05-05 21:14 | -36.90811 | 146.66572 | 31729 ft | 440 kts | 239° |
| 2026-05-05 21:14 | -36.92503 | 146.63409 | 31175 ft | 436 kts | 239° |
| 2026-05-05 21:14 | -36.94180 | 146.60271 | 30622 ft | 433 kts | 239° |
| 2026-05-05 21:15 | -36.95848 | 146.57148 | 30026 ft | 430 kts | 239° |
| 2026-05-05 21:15 | -36.97502 | 146.54050 | 29469 ft | 425 kts | 239° |
| 2026-05-05 21:15 | -36.99135 | 146.50990 | 28934 ft | 421 kts | 239° |
| 2026-05-05 21:15 | -37.00728 | 146.47999 | 28399 ft | 417 kts | 239° |
| 2026-05-05 21:16 | -37.02328 | 146.44993 | 27855 ft | 413 kts | 239° |
| 2026-05-05 21:16 | -37.03914 | 146.42010 | 27334 ft | 410 kts | 239° |
| 2026-05-05 21:16 | -37.05487 | 146.39049 | 26789 ft | 407 kts | 239° |
| 2026-05-05 21:16 | -37.07047 | 146.36108 | 26269 ft | 405 kts | 240° |
| 2026-05-05 21:17 | -37.08601 | 146.33179 | 25741 ft | 402 kts | 240° |
| 2026-05-05 21:17 | -37.10146 | 146.30264 | 25208 ft | 400 kts | 240° |
| 2026-05-05 21:17 | -37.11681 | 146.27367 | 24687 ft | 399 kts | 240° |
| 2026-05-05 21:17 | -37.13190 | 146.24514 | 24167 ft | 397 kts | 240° |
| 2026-05-05 21:18 | -37.14713 | 146.21632 | 23594 ft | 396 kts | 240° |
| 2026-05-05 21:18 | -37.16227 | 146.18765 | 23040 ft | 393 kts | 240° |
| 2026-05-05 21:18 | -37.17728 | 146.15921 | 22518 ft | 389 kts | 240° |
| 2026-05-05 21:18 | -37.19215 | 146.13102 | 21998 ft | 386 kts | 240° |
| 2026-05-05 21:19 | -37.20691 | 146.10299 | 21472 ft | 384 kts | 240° |
| 2026-05-05 21:19 | -37.22154 | 146.07521 | 20945 ft | 381 kts | 240° |
| 2026-05-05 21:19 | -37.23610 | 146.04753 | 20423 ft | 378 kts | 240° |
| 2026-05-05 21:19 | -37.25055 | 146.02005 | 19902 ft | 376 kts | 240° |
| 2026-05-05 21:20 | -37.26470 | 145.99310 | 19396 ft | 374 kts | 240° |
| 2026-05-05 21:20 | -37.27896 | 145.96591 | 18861 ft | 372 kts | 240° |
| 2026-05-05 21:20 | -37.29311 | 145.93891 | 18330 ft | 370 kts | 240° |
| 2026-05-05 21:20 | -37.30717 | 145.91208 | 17789 ft | 366 kts | 240° |
| 2026-05-05 21:21 | -37.32112 | 145.88551 | 17291 ft | 362 kts | 239° |
| 2026-05-05 21:21 | -37.33489 | 145.85928 | 16785 ft | 359 kts | 239° |
| 2026-05-05 21:21 | -37.34857 | 145.83322 | 16273 ft | 356 kts | 240° |
| 2026-05-05 21:21 | -37.36212 | 145.80739 | 15778 ft | 353 kts | 239° |
| 2026-05-05 21:22 | -37.37542 | 145.78202 | 15288 ft | 351 kts | 240° |
| 2026-05-05 21:22 | -37.38898 | 145.75613 | 14793 ft | 349 kts | 240° |
| 2026-05-05 21:22 | -37.40210 | 145.73106 | 14298 ft | 347 kts | 240° |
| 2026-05-05 21:22 | -37.41528 | 145.70582 | 13793 ft | 345 kts | 240° |
| 2026-05-05 21:23 | -37.42838 | 145.68074 | 13303 ft | 341 kts | 240° |
| 2026-05-05 21:23 | -37.44129 | 145.65601 | 12830 ft | 337 kts | 240° |
| 2026-05-05 21:23 | -37.45408 | 145.63154 | 12360 ft | 332 kts | 239° |
| 2026-05-05 21:23 | -37.46729 | 145.60791 | 11901 ft | 329 kts | 237° |
| 2026-05-05 21:24 | -37.48093 | 145.58488 | 11434 ft | 326 kts | 236° |
| 2026-05-05 21:24 | -37.49431 | 145.56243 | 10990 ft | 323 kts | 236° |
| 2026-05-05 21:24 | -37.50763 | 145.53989 | 10606 ft | 318 kts | 236° |
| 2026-05-05 21:24 | -37.52048 | 145.51804 | 10481 ft | 304 kts | 236° |
| 2026-05-05 21:25 | -37.53274 | 145.49702 | 10369 ft | 291 kts | 237° |
| 2026-05-05 21:25 | -37.54449 | 145.47679 | 10095 ft | 285 kts | 237° |
| 2026-05-05 21:25 | -37.55610 | 145.45674 | 9840 ft | 282 kts | 237° |
| 2026-05-05 21:25 | -37.56766 | 145.43675 | 9568 ft | 281 kts | 237° |
| 2026-05-05 21:26 | -37.57906 | 145.41702 | 9273 ft | 276 kts | 237° |
| 2026-05-05 21:26 | -37.59026 | 145.39765 | 8976 ft | 271 kts | 237° |
| 2026-05-05 21:26 | -37.60115 | 145.37883 | 8682 ft | 267 kts | 237° |
| 2026-05-05 21:26 | -37.61200 | 145.36006 | 8409 ft | 263 kts | 237° |
| 2026-05-05 21:27 | -37.62272 | 145.34163 | 8134 ft | 259 kts | 237° |
| 2026-05-05 21:27 | -37.63328 | 145.32338 | 7857 ft | 256 kts | 237° |
| 2026-05-05 21:27 | -37.64366 | 145.30534 | 7576 ft | 253 kts | 237° |
| 2026-05-05 21:27 | -37.65393 | 145.28748 | 7297 ft | 251 kts | 237° |
| 2026-05-05 21:28 | -37.66413 | 145.26974 | 7027 ft | 249 kts | 237° |
| 2026-05-05 21:28 | -37.67428 | 145.25206 | 6758 ft | 247 kts | 237° |
| 2026-05-05 21:28 | -37.68419 | 145.23485 | 6488 ft | 245 kts | 237° |
| 2026-05-05 21:28 | -37.69419 | 145.21748 | 6204 ft | 243 kts | 237° |
| 2026-05-05 21:29 | -37.70408 | 145.20029 | 5931 ft | 241 kts | 236° |
| 2026-05-05 21:29 | -37.71388 | 145.18325 | 5665 ft | 239 kts | 236° |
| 2026-05-05 21:29 | -37.72368 | 145.16621 | 5395 ft | 239 kts | 236° |
| 2026-05-05 21:29 | -37.73328 | 145.14949 | 5124 ft | 238 kts | 236° |
| 2026-05-05 21:30 | -37.74310 | 145.13238 | 4862 ft | 236 kts | 236° |
| 2026-05-05 21:30 | -37.75267 | 145.11571 | 4738 ft | 235 kts | 236° |
| 2026-05-05 21:30 | -37.76215 | 145.09919 | 4616 ft | 235 kts | 236° |
| 2026-05-05 21:30 | -37.77176 | 145.08243 | 4458 ft | 237 kts | 236° |
| 2026-05-05 21:31 | -37.78167 | 145.06510 | 4370 ft | 247 kts | 236° |
| 2026-05-05 21:31 | -37.79171 | 145.04762 | 4344 ft | 242 kts | 236° |
| 2026-05-05 21:31 | -37.80144 | 145.03066 | 4179 ft | 236 kts | 236° |
| 2026-05-05 21:31 | -37.81060 | 145.01367 | 3988 ft | 229 kts | 244° |
| 2026-05-05 21:32 | -37.81624 | 144.99541 | 3908 ft | 218 kts | 257° |
| 2026-05-05 21:32 | -37.81913 | 144.97726 | 3848 ft | 208 kts | 259° |
| 2026-05-05 21:32 | -37.82211 | 144.95978 | 3695 ft | 201 kts | 258° |
| 2026-05-05 21:32 | -37.82512 | 144.94280 | 3405 ft | 191 kts | 259° |
| 2026-05-05 21:33 | -37.82714 | 144.92688 | 3013 ft | 178 kts | 263° |
| 2026-05-05 21:33 | -37.82902 | 144.91162 | 2591 ft | 172 kts | 263° |
| 2026-05-05 21:33 | -37.83089 | 144.89662 | 2494 ft | 175 kts | 263° |
| 2026-05-05 21:33 | -37.83076 | 144.88151 | 2496 ft | 174 kts | 289° |
| 2026-05-05 21:34 | -37.82371 | 144.86929 | 2495 ft | 176 kts | 324° |
| 2026-05-05 21:34 | -37.81209 | 144.86433 | 2501 ft | 181 kts | 350° |
| 2026-05-05 21:34 | -37.79957 | 144.86247 | 2468 ft | 181 kts | 349° |
| 2026-05-05 21:34 | -37.78719 | 144.86021 | 2348 ft | 180 kts | 348° |
| 2026-05-05 21:35 | -37.77487 | 144.85783 | 2115 ft | 176 kts | 348° |
| 2026-05-05 21:35 | -37.76299 | 144.85554 | 1903 ft | 164 kts | 348° |
| 2026-05-05 21:35 | -37.75244 | 144.85359 | 1681 ft | 147 kts | 348° |
| 2026-05-05 21:35 | -37.74261 | 144.85173 | 1476 ft | 139 kts | 348° |
| 2026-05-05 21:36 | -37.73333 | 144.84993 | 1265 ft | 135 kts | 351° |
| 2026-05-05 21:36 | -37.72415 | 144.84824 | 1065 ft | 132 kts | 351° |
| 2026-05-05 21:36 | -37.71500 | 144.84654 | 948 ft | 133 kts | 351° |
| 2026-05-05 21:36 | -37.70581 | 144.84463 | 788 ft | 134 kts | 351° |
| 2026-05-05 21:37 | -37.69928 | 144.84339 | 661 ft | 132 kts | 352° |
| 2026-05-05 21:37 | -37.69014 | 144.84173 | 463 ft | 132 kts | 352° |
| 2026-05-05 21:37 | -37.68116 | 144.84010 | 363 ft | 122 kts | 351° |
| 2026-05-05 21:37 | -37.67442 | 144.83884 | 377 ft | 82 kts | 351° |
| 2026-05-05 21:38 | -37.66979 | 144.83799 | 392 ft | 55 kts | 352° |
| 2026-05-05 21:38 | -37.66721 | 144.83753 | 400 ft | 25 kts | 350° |
| 2026-05-05 21:38 | -37.66596 | 144.83733 | 405 ft | 14 kts | 5° |
| 2026-05-05 21:38 | -37.66522 | 144.83792 | 406 ft | 12 kts | 62° |
| 2026-05-05 21:39 | -37.66515 | 144.83900 | 405 ft | 12 kts | 113° |
| 2026-05-05 21:39 | -37.66585 | 144.83945 | 403 ft | 16 kts | 172° |
| 2026-05-05 21:39 | -37.66717 | 144.83969 | 399 ft | 19 kts | 171° |
| 2026-05-05 21:39 | -37.66866 | 144.83999 | 393 ft | 22 kts | 172° |
| 2026-05-05 21:40 | -37.66986 | 144.84020 | 391 ft | 15 kts | 172° |
| 2026-05-05 21:40 | -37.67066 | 144.84045 | 388 ft | 12 kts | 139° |
| 2026-05-05 21:40 | -37.67078 | 144.84156 | 388 ft | 14 kts | 79° |
| 2026-05-05 21:40 | -37.67063 | 144.84237 | 389 ft | 8 kts | 56° |
| 2026-05-05 21:41 | -37.67031 | 144.84280 | 391 ft | 2 kts | 43° |
| 2026-05-05 21:41 | -37.67011 | 144.84306 | 392 ft | 6 kts | 43° |
| 2026-05-05 21:41 | -37.67000 | 144.84318 | 392 ft | 3 kts | 43° |
| 2026-05-05 21:41 | -37.66991 | 144.84329 | 392 ft | 0 kts | 43° |
| 2026-05-05 21:42 | -37.66985 | 144.84336 | 393 ft | 3 kts | 43° |
| 2026-05-05 21:42 | -37.66968 | 144.84356 | 393 ft | 2 kts | 43° |
| 2026-05-05 21:43 | -37.66966 | 144.84359 | 393 ft | 0 kts | 43° |
| 2026-05-05 21:43 | -37.66964 | 144.84361 | 393 ft | 1 kts | 43° |